createdAt,value
2022-09-13T00:00:52.225Z,4.78
2022-09-13T00:03:21.401Z,4.97
2022-09-13T00:05:50.241Z,5.70
2022-09-13T00:08:20.329Z,6.97
2022-09-13T00:10:49.098Z,7.10
2022-09-13T00:13:18.914Z,5.38
2022-09-13T00:15:48.349Z,6.90
2022-09-13T00:18:17.911Z,6.03
2022-09-13T00:20:46.454Z,6.57
2022-09-13T00:23:15.098Z,5.93
2022-09-13T00:25:44.665Z,7.75
2022-09-13T00:28:12.896Z,6.85
2022-09-13T00:30:41.105Z,6.47
2022-09-13T00:33:09.257Z,8.50
2022-09-13T00:35:37.602Z,6.50
2022-09-13T00:38:07.126Z,7.95
2022-09-13T00:40:39.419Z,5.88
2022-09-13T00:43:17.507Z,7.32
2022-09-13T00:45:46.597Z,6.78
2022-09-13T00:48:20.968Z,8.35
2022-09-13T00:50:54.354Z,6.05
2022-09-13T00:53:27.709Z,7.22
2022-09-13T00:55:59.569Z,6.70
2022-09-13T00:58:35.007Z,5.97
2022-09-13T01:01:05.644Z,8.00
2022-09-13T01:03:36.824Z,8.00
2022-09-13T01:06:11.387Z,8.77
2022-09-13T01:08:43.163Z,6.07
2022-09-13T01:11:16.402Z,7.00
2022-09-13T01:13:46.847Z,6.18
2022-09-13T01:16:15.127Z,6.30
2022-09-13T01:18:43.565Z,5.47
2022-09-13T01:21:41.422Z,7.53
2022-09-13T01:25:10.045Z,5.57
2022-09-13T01:28:12.524Z,6.68
2022-09-13T01:30:45.389Z,7.28
2022-09-13T01:33:32.956Z,5.85
2022-09-13T01:36:20.992Z,6.22
2022-09-13T01:38:58.573Z,6.53
2022-09-13T01:41:42.879Z,8.93
2022-09-13T01:44:21.758Z,6.10
2022-09-13T01:47:00.084Z,6.13
2022-09-13T01:49:34.984Z,6.32
2022-09-13T01:52:08.790Z,6.40
2022-09-13T01:54:43.409Z,5.70
2022-09-13T01:57:17.440Z,6.43
2022-09-13T01:59:51.727Z,7.93
2022-09-13T02:02:28.688Z,6.75
2022-09-13T02:05:02.593Z,6.68
2022-09-13T02:07:36.992Z,6.18
2022-09-13T02:10:09.779Z,5.68
2022-09-13T02:12:41.815Z,8.10
2022-09-13T02:15:15.343Z,6.93
2022-09-13T02:20:23.843Z,7.13
2022-09-13T02:22:56.743Z,6.35
2022-09-13T02:25:27.747Z,6.72
2022-09-13T02:28:02.105Z,7.35
2022-09-13T02:30:35.160Z,6.50
2022-09-13T02:33:08.940Z,5.15
2022-09-13T02:35:39.807Z,5.53
2022-09-13T02:38:15.947Z,6.43
2022-09-13T02:40:47.717Z,6.15
2022-09-13T02:43:23.180Z,8.35
2022-09-13T02:45:59.299Z,6.93
2022-09-13T02:48:38.072Z,6.50
2022-09-13T02:51:13.421Z,5.35
2022-09-13T02:53:47.160Z,5.95
2022-09-13T02:56:24.738Z,6.07
2022-09-13T02:58:59.134Z,5.70
2022-09-13T03:01:27.755Z,6.75
2022-09-13T03:03:57.359Z,4.90
2022-09-13T03:06:26.811Z,5.93
2022-09-13T03:08:57.510Z,5.63
2022-09-13T03:11:37.568Z,5.82
2022-09-13T03:14:21.236Z,6.47
2022-09-13T03:17:06.611Z,8.50
2022-09-13T03:19:54.381Z,6.90
2022-09-13T03:22:52.633Z,7.90
2022-09-13T03:25:32.091Z,8.35
2022-09-13T03:28:09.035Z,7.80
2022-09-13T03:30:43.507Z,6.75
2022-09-13T03:33:21.153Z,6.63
2022-09-13T03:35:55.537Z,8.45
2022-09-13T03:38:29.076Z,8.63
2022-09-13T03:43:35.779Z,5.28
2022-09-13T03:46:07.254Z,8.48
2022-09-13T03:48:39.229Z,7.28
2022-09-13T03:51:09.784Z,5.53
2022-09-13T03:53:44.152Z,7.53
2022-09-13T03:56:15.737Z,5.65
2022-09-13T03:58:44.217Z,6.25
2022-09-13T04:01:12.437Z,6.47
2022-09-13T04:03:41.309Z,8.23
2022-09-13T04:06:11.422Z,6.97
2022-09-13T04:08:39.891Z,5.63
2022-09-13T04:11:09.458Z,5.43
2022-09-13T04:13:38.075Z,5.20
2022-09-13T04:16:07.945Z,8.23
2022-09-13T04:18:36.785Z,9.63
2022-09-13T04:21:05.566Z,7.13
2022-09-13T04:23:35.134Z,6.55
2022-09-13T04:26:03.812Z,6.78
2022-09-13T04:28:32.199Z,6.90
2022-09-13T04:31:00.374Z,7.32
2022-09-13T04:33:28.491Z,6.72
2022-09-13T04:35:59.544Z,5.72
2022-09-13T04:38:27.827Z,5.22
2022-09-13T04:40:57.788Z,4.97
2022-09-13T04:43:26.234Z,7.97
2022-09-13T04:45:54.613Z,10.18
2022-09-13T04:48:23.049Z,9.23
2022-09-13T04:50:51.187Z,9.10
2022-09-13T04:53:19.628Z,10.48
2022-09-13T04:55:47.917Z,7.55
2022-09-13T04:58:17.681Z,7.32
2022-09-13T05:00:45.872Z,7.53
2022-09-13T05:03:14.235Z,9.23
2022-09-13T05:05:42.373Z,8.88
2022-09-13T05:08:12.260Z,9.05
2022-09-13T05:10:40.700Z,10.23
2022-09-13T05:13:08.852Z,9.20
2022-09-13T05:15:38.744Z,10.63
2022-09-13T05:18:07.064Z,8.88
2022-09-13T05:20:35.561Z,13.50
2022-09-13T05:23:03.827Z,10.15
2022-09-13T05:25:31.966Z,12.50
2022-09-13T05:28:00.138Z,14.10
2022-09-13T05:30:28.336Z,11.68
2022-09-13T05:32:58.434Z,8.98
2022-09-13T05:35:26.587Z,11.05
2022-09-13T05:37:54.897Z,11.13
2022-09-13T05:40:23.222Z,9.55
2022-09-13T05:42:54.655Z,9.95
2022-09-13T05:45:23.092Z,11.25
2022-09-13T05:47:52.510Z,10.35
2022-09-13T05:50:45.141Z,12.95
2022-09-13T05:53:10.372Z,9.52
2022-09-13T05:55:38.580Z,8.27
2022-09-13T05:58:06.789Z,9.25
2022-09-13T06:00:35.706Z,7.22
2022-09-13T06:03:03.938Z,7.20
2022-09-13T06:05:34.690Z,8.18
2022-09-13T06:08:03.458Z,7.72
2022-09-13T06:10:31.672Z,8.05
2022-09-13T06:13:02.648Z,8.10
2022-09-13T06:15:32.183Z,8.00
2022-09-13T06:18:00.563Z,8.82
2022-09-13T06:20:28.672Z,7.32
2022-09-13T06:22:58.372Z,9.30
2022-09-13T06:25:26.602Z,7.97
2022-09-13T06:27:55.101Z,8.10
2022-09-13T06:30:23.546Z,7.57
2022-09-13T06:32:52.079Z,11.38
2022-09-13T06:35:20.170Z,8.05
2022-09-13T06:37:48.513Z,9.20
2022-09-13T06:40:21.866Z,7.07
2022-09-13T06:42:53.841Z,8.40
2022-09-13T06:45:22.235Z,10.00
2022-09-13T06:47:50.408Z,9.18
2022-09-13T06:50:19.034Z,8.40
2022-09-13T06:52:47.392Z,6.32
2022-09-13T06:55:17.579Z,9.27
2022-09-13T06:57:45.927Z,10.50
2022-09-13T07:00:15.365Z,8.40
2022-09-13T07:02:43.545Z,10.85
2022-09-13T07:05:12.186Z,9.75
2022-09-13T07:07:40.483Z,8.93
2022-09-13T07:10:09.557Z,11.75
2022-09-13T07:12:41.317Z,10.75
2022-09-13T07:15:10.643Z,9.23
2022-09-13T07:17:38.787Z,12.23
2022-09-13T07:20:08.899Z,10.68
2022-09-13T07:22:36.984Z,10.55
2022-09-13T07:25:05.469Z,10.43
2022-09-13T07:27:33.782Z,10.45
2022-09-13T07:30:03.420Z,9.90
2022-09-13T07:32:34.008Z,9.98
2022-09-13T07:35:02.772Z,10.88
2022-09-13T07:37:30.895Z,10.82
2022-09-13T07:39:59.093Z,10.45
2022-09-13T07:42:28.016Z,9.02
2022-09-13T07:44:56.114Z,8.98
2022-09-13T07:47:25.587Z,11.27
2022-09-13T07:49:54.164Z,10.57
2022-09-13T07:52:22.263Z,10.02
2022-09-13T07:54:50.405Z,9.23
2022-09-13T07:57:18.730Z,10.80
2022-09-13T07:59:46.853Z,9.63
2022-09-13T08:02:16.509Z,9.98
2022-09-13T08:04:46.175Z,10.93
2022-09-13T08:07:14.490Z,10.15
2022-09-13T08:09:42.636Z,9.38
2022-09-13T08:12:11.279Z,11.88
2022-09-13T08:14:39.553Z,10.70
2022-09-13T08:17:07.762Z,9.93
2022-09-13T08:19:36.068Z,10.40
2022-09-13T08:22:05.794Z,9.70
2022-09-13T08:24:33.961Z,9.00
2022-09-13T08:27:02.161Z,9.55
2022-09-13T08:29:30.376Z,10.15
2022-09-13T08:31:58.514Z,12.43
2022-09-13T08:34:27.365Z,8.95
2022-09-13T08:36:55.561Z,10.63
2022-09-13T08:39:25.334Z,12.38
2022-09-13T08:42:08.270Z,9.45
2022-09-13T08:44:39.517Z,19.08
2022-09-13T08:47:25.836Z,11.77
2022-09-13T08:50:01.726Z,9.88
2022-09-13T08:52:34.064Z,12.80
2022-09-13T08:55:13.333Z,11.27
2022-09-13T08:57:48.676Z,10.10
2022-09-13T09:00:23.134Z,10.40
2022-09-13T09:03:06.468Z,13.65
2022-09-13T09:05:43.064Z,10.35
2022-09-13T09:08:19.144Z,11.65
2022-09-13T09:10:52.134Z,12.18
2022-09-13T09:13:27.104Z,13.48
2022-09-13T09:15:59.897Z,13.30
2022-09-13T09:18:33.867Z,12.27
2022-09-13T09:21:04.590Z,11.93
2022-09-13T09:23:37.962Z,13.18
2022-09-13T09:28:43.415Z,10.52
2022-09-13T09:31:18.345Z,15.38
2022-09-13T09:34:00.574Z,10.60
2022-09-13T09:36:39.263Z,11.27
2022-09-13T09:39:11.813Z,11.77
2022-09-13T09:41:41.760Z,8.40
2022-09-13T09:44:20.415Z,12.68
2022-09-13T09:46:51.910Z,11.15
2022-09-13T09:49:43.209Z,11.15
2022-09-13T09:52:16.313Z,11.77
2022-09-13T09:54:45.028Z,11.52
2022-09-13T09:57:14.942Z,10.82
2022-09-13T09:59:43.072Z,13.63
2022-09-13T10:02:18.917Z,9.95
2022-09-13T10:04:57.356Z,9.55
2022-09-13T10:07:32.906Z,10.95
2022-09-13T10:10:04.524Z,9.27
2022-09-13T10:12:36.976Z,12.20
2022-09-13T10:15:17.371Z,12.03
2022-09-13T10:18:01.799Z,10.82
2022-09-13T10:20:31.514Z,13.55
2022-09-13T10:23:20.508Z,10.73
2022-09-13T10:26:02.465Z,12.38
2022-09-13T10:28:36.372Z,14.20
2022-09-13T10:31:09.529Z,10.55
2022-09-13T10:33:41.599Z,10.75
2022-09-13T10:36:25.046Z,11.73
2022-09-13T10:39:06.267Z,10.68
2022-09-13T10:41:38.632Z,10.52
2022-09-13T10:44:23.742Z,10.73
2022-09-13T10:46:52.464Z,9.20
2022-09-13T10:49:42.395Z,11.20
2022-09-13T10:52:28.582Z,9.45
2022-09-13T10:54:58.148Z,10.13
2022-09-13T10:57:37.831Z,8.80
2022-09-13T11:00:12.593Z,8.45
2022-09-13T11:03:05.509Z,11.00
2022-09-13T11:05:42.166Z,10.10
2022-09-13T11:08:26.879Z,11.60
2022-09-13T11:11:07.716Z,12.68
2022-09-13T11:13:45.435Z,10.43
2022-09-13T11:16:31.478Z,11.82
2022-09-13T11:19:23.730Z,10.40
2022-09-13T11:22:08.712Z,10.00
2022-09-13T11:24:51.506Z,12.57
2022-09-13T11:27:29.257Z,13.55
2022-09-13T11:30:11.666Z,12.75
2022-09-13T11:32:58.592Z,10.73
2022-09-13T11:35:37.413Z,12.05
2022-09-13T11:38:37.358Z,11.82
2022-09-13T11:41:14.922Z,12.00
2022-09-13T11:43:56.504Z,10.98
2022-09-13T11:46:35.515Z,12.27
2022-09-13T11:49:35.149Z,10.77
2022-09-13T11:52:15.402Z,12.40
2022-09-13T11:55:00.219Z,11.80
2022-09-13T11:57:34.018Z,10.65
2022-09-13T12:00:05.849Z,12.70
2022-09-13T12:02:43.630Z,11.75
2022-09-13T12:05:24.643Z,10.20
2022-09-13T12:07:57.954Z,12.02
2022-09-13T12:12:56.903Z,13.40
2022-09-13T12:15:38.289Z,12.65
2022-09-13T12:18:13.410Z,12.00
2022-09-13T12:20:48.438Z,11.85
2022-09-13T12:23:22.036Z,17.25
2022-09-13T12:25:54.656Z,44.53
2022-09-13T12:28:27.418Z,26.67
2022-09-13T12:31:00.474Z,16.92
2022-09-13T12:33:29.368Z,12.98
2022-09-13T12:36:30.117Z,21.50
2022-09-13T12:39:25.817Z,22.65
2022-09-13T12:42:23.939Z,23.88
2022-09-13T12:45:09.669Z,18.25
2022-09-13T12:48:03.767Z,14.48
2022-09-13T12:50:46.109Z,26.60
2022-09-13T12:53:31.387Z,21.77
2022-09-13T12:56:10.577Z,15.90
2022-09-13T12:58:53.713Z,14.50
2022-09-13T13:01:23.830Z,18.58
2022-09-13T13:03:55.940Z,13.98
2022-09-13T13:06:34.777Z,14.23
2022-09-13T13:09:08.647Z,15.05
2022-09-13T13:11:47.423Z,12.85
2022-09-13T13:14:46.640Z,15.55
2022-09-13T13:17:54.275Z,18.80
2022-09-13T13:20:47.112Z,20.52
2022-09-13T13:23:24.809Z,13.73
2022-09-13T13:26:03.192Z,19.70
2022-09-13T13:29:05.125Z,25.05
2022-09-13T13:31:39.149Z,54.33
2022-09-13T13:34:42.959Z,25.13
2022-09-13T13:37:33.512Z,21.48
2022-09-13T13:40:23.998Z,18.42
2022-09-13T13:43:17.355Z,19.65
2022-09-13T13:45:59.622Z,15.77
2022-09-13T13:48:39.977Z,19.50
2022-09-13T13:51:25.618Z,14.68
2022-09-13T13:53:58.150Z,16.30
2022-09-13T13:56:45.517Z,19.97
2022-09-13T13:59:25.870Z,14.43
2022-09-13T14:01:59.628Z,18.90
2022-09-13T14:05:08.318Z,15.93
2022-09-13T14:08:05.029Z,16.63
2022-09-13T14:10:44.305Z,17.52
2022-09-13T14:13:31.181Z,15.30
2022-09-13T14:16:10.966Z,23.30
2022-09-13T14:19:07.614Z,21.38
2022-09-13T14:21:36.901Z,17.08
2022-09-13T14:24:19.309Z,19.25
2022-09-13T14:26:49.204Z,16.55
2022-09-13T14:29:20.000Z,18.48
2022-09-13T14:31:52.146Z,20.05
2022-09-13T14:34:25.727Z,18.27
2022-09-13T14:36:57.227Z,14.68
2022-09-13T14:39:26.466Z,17.65
2022-09-13T14:42:01.112Z,17.20
2022-09-13T14:44:30.476Z,19.90
2022-09-13T14:47:13.519Z,16.42
2022-09-13T14:49:49.210Z,21.08
2022-09-13T14:52:25.284Z,21.40
2022-09-13T14:54:57.559Z,21.25
2022-09-13T14:57:30.042Z,20.50
2022-09-13T15:00:02.873Z,23.33
2022-09-13T15:02:37.729Z,21.92
2022-09-13T15:05:10.088Z,20.05
2022-09-13T15:07:40.424Z,19.85
2022-09-13T15:10:20.904Z,20.17
2022-09-13T15:12:55.212Z,20.77
2022-09-13T15:15:27.268Z,27.20
2022-09-13T15:17:58.906Z,23.20
2022-09-13T15:20:29.382Z,23.20
2022-09-13T15:22:58.369Z,27.42
2022-09-13T15:25:29.641Z,24.90
2022-09-13T15:27:58.740Z,26.42
2022-09-13T15:30:29.418Z,25.25
2022-09-13T15:33:20.292Z,24.88
2022-09-13T15:35:49.271Z,27.30
2022-09-13T15:38:22.663Z,25.95
2022-09-13T15:43:27.706Z,24.75
2022-09-13T15:45:58.212Z,28.17
2022-09-13T15:48:30.720Z,28.45
2022-09-13T15:51:11.101Z,27.63
2022-09-13T15:53:40.496Z,27.50
2022-09-13T15:56:10.080Z,25.30
2022-09-13T15:58:38.706Z,26.83
2022-09-13T16:01:07.474Z,26.05
2022-09-13T16:03:36.971Z,28.08
2022-09-13T16:06:05.211Z,24.50
2022-09-13T16:08:33.783Z,23.48
2022-09-13T16:11:01.991Z,27.35
2022-09-13T16:13:30.140Z,25.65
2022-09-13T16:15:58.691Z,27.60
2022-09-13T16:18:27.248Z,22.50
2022-09-13T16:20:56.907Z,26.33
2022-09-13T16:23:25.234Z,27.10
2022-09-13T16:25:57.551Z,27.17
2022-09-13T16:28:26.206Z,27.50
2022-09-13T16:30:55.021Z,30.13
2022-09-13T16:33:23.594Z,29.92
2022-09-13T16:35:51.844Z,28.85
2022-09-13T16:38:21.855Z,28.40
2022-09-13T16:40:50.397Z,27.40
2022-09-13T16:43:18.552Z,26.65
2022-09-13T16:45:46.777Z,26.33
2022-09-13T16:48:15.133Z,30.83
2022-09-13T16:50:43.495Z,28.77
2022-09-13T16:53:11.846Z,32.10
2022-09-13T16:55:41.448Z,26.77
2022-09-13T16:58:09.605Z,30.85
2022-09-13T17:00:37.790Z,31.23
2022-09-13T17:03:06.146Z,31.67
2022-09-13T17:05:34.690Z,32.63
2022-09-13T17:08:03.318Z,35.78
2022-09-13T17:10:31.651Z,27.33
2022-09-13T17:13:01.230Z,32.22
2022-09-13T17:15:29.582Z,31.17
2022-09-13T17:17:58.020Z,29.15
2022-09-13T17:20:26.245Z,30.80
2022-09-13T17:22:54.977Z,27.90
2022-09-13T17:25:23.456Z,28.38
2022-09-13T17:27:51.622Z,30.17
2022-09-13T17:30:21.436Z,29.45
2022-09-13T17:32:49.926Z,27.23
2022-09-13T17:35:18.266Z,29.65
2022-09-13T17:37:46.576Z,28.83
2022-09-13T17:40:14.862Z,26.63
2022-09-13T17:42:43.288Z,28.95
2022-09-13T17:45:12.493Z,30.65
2022-09-13T17:47:42.047Z,25.42
2022-09-13T17:50:11.055Z,29.45
2022-09-13T17:52:39.359Z,27.52
2022-09-13T17:55:10.924Z,31.05
2022-09-13T17:57:39.104Z,26.25
2022-09-13T18:00:09.790Z,29.85
2022-09-13T18:02:38.116Z,29.25
2022-09-13T18:05:12.950Z,31.02
2022-09-13T18:07:42.225Z,29.17
2022-09-13T18:10:31.332Z,30.00
2022-09-13T18:12:59.449Z,31.10
2022-09-13T18:15:27.801Z,29.70
2022-09-13T18:17:55.998Z,29.10
2022-09-13T18:20:26.252Z,30.25
2022-09-13T18:22:54.514Z,29.17
2022-09-13T18:25:23.642Z,29.70
2022-09-13T18:27:51.882Z,31.17
2022-09-13T18:30:20.129Z,32.78
2022-09-13T18:32:48.301Z,30.02
2022-09-13T18:35:16.754Z,34.80
2022-09-13T18:37:46.311Z,31.08
2022-09-13T18:40:15.367Z,29.13
2022-09-13T18:42:45.110Z,31.05
2022-09-13T18:45:13.926Z,32.08
2022-09-13T18:47:42.036Z,31.02
2022-09-13T18:50:11.788Z,29.25
2022-09-13T18:52:40.794Z,30.20
2022-09-13T18:55:10.827Z,27.80
2022-09-13T18:57:39.014Z,25.05
2022-09-13T19:00:08.433Z,24.25
2022-09-13T19:02:52.041Z,24.45
2022-09-13T19:05:27.138Z,25.23
2022-09-13T19:07:56.331Z,20.65
2022-09-13T19:10:26.108Z,22.50
2022-09-13T19:12:54.718Z,20.20
2022-09-13T19:15:22.834Z,20.83
2022-09-13T19:17:51.102Z,22.35
2022-09-13T19:20:21.571Z,21.77
2022-09-13T19:22:49.791Z,18.23
2022-09-13T19:25:17.977Z,16.73
2022-09-13T19:27:47.685Z,18.00
2022-09-13T19:30:16.043Z,16.33
2022-09-13T19:32:44.362Z,18.38
2022-09-13T19:35:12.613Z,18.15
2022-09-13T19:37:40.743Z,17.58
2022-09-13T19:40:10.134Z,19.98
2022-09-13T19:42:38.578Z,16.63
2022-09-13T19:45:09.520Z,17.17
2022-09-13T19:48:34.653Z,16.98
2022-09-13T19:50:26.521Z,17.83
2022-09-13T19:52:54.798Z,19.33
2022-09-13T19:55:23.684Z,17.85
2022-09-13T19:57:52.174Z,18.75
2022-09-13T20:00:21.946Z,16.60
2022-09-13T20:02:50.244Z,16.13
2022-09-13T20:05:18.663Z,18.10
2022-09-13T20:07:46.858Z,18.88
2022-09-13T20:10:15.388Z,16.65
2022-09-13T20:12:43.673Z,15.50
2022-09-13T20:15:12.264Z,15.82
2022-09-13T20:17:41.918Z,18.08
2022-09-13T20:20:10.687Z,16.42
2022-09-13T20:22:39.069Z,17.88
2022-09-13T20:25:08.558Z,16.65
2022-09-13T20:27:38.147Z,15.80
2022-09-13T20:30:07.471Z,16.05
2022-09-13T20:32:35.629Z,16.23
2022-09-13T20:35:05.635Z,14.10
2022-09-13T20:37:34.146Z,19.60
2022-09-13T20:40:02.840Z,15.27
2022-09-13T20:42:31.307Z,16.63
2022-09-13T20:44:59.653Z,18.05
2022-09-13T20:47:28.741Z,17.77
2022-09-13T20:49:56.888Z,17.08
2022-09-13T20:52:26.683Z,16.40
2022-09-13T20:54:55.010Z,16.65
2022-09-13T20:57:23.398Z,20.92
2022-09-13T20:59:51.977Z,17.38
2022-09-13T21:02:20.288Z,18.63
2022-09-13T21:04:48.444Z,19.23
2022-09-13T21:07:34.255Z,15.63
2022-09-13T21:10:05.322Z,17.80
2022-09-13T21:12:34.802Z,17.83
2022-09-13T21:15:03.159Z,15.80
2022-09-13T21:17:31.324Z,18.02
2022-09-13T21:19:59.925Z,14.13
2022-09-13T21:22:29.450Z,15.20
2022-09-13T21:24:57.584Z,19.08
2022-09-13T21:27:27.167Z,17.20
2022-09-13T21:29:55.532Z,18.17
2022-09-13T21:32:23.806Z,20.58
2022-09-13T21:34:52.299Z,16.65
2022-09-13T21:37:20.870Z,16.38
2022-09-13T21:39:49.141Z,16.88
2022-09-13T21:42:17.370Z,20.52
2022-09-13T21:44:47.245Z,21.33
2022-09-13T21:47:15.628Z,17.13
2022-09-13T21:49:45.348Z,20.52
2022-09-13T21:52:14.160Z,15.50
2022-09-13T21:54:42.313Z,13.57
2022-09-13T21:57:10.450Z,17.98
2022-09-13T21:59:39.073Z,17.05
2022-09-13T22:02:08.637Z,15.52
2022-09-13T22:04:36.794Z,15.77
2022-09-13T22:07:08.183Z,15.73
2022-09-13T22:09:36.322Z,15.45
2022-09-13T22:12:04.526Z,12.60
2022-09-13T22:14:33.007Z,16.50
2022-09-13T22:17:01.870Z,15.73
2022-09-13T22:19:32.186Z,12.82
2022-09-13T22:22:01.414Z,16.48
2022-09-13T22:24:32.131Z,13.80
2022-09-13T22:27:00.819Z,15.52
2022-09-13T22:29:29.183Z,14.32
2022-09-13T22:31:57.679Z,18.02
2022-09-13T22:34:30.884Z,14.80
2022-09-13T22:37:01.283Z,13.65
2022-09-13T22:39:29.425Z,15.73
2022-09-13T22:41:57.927Z,14.43
2022-09-13T22:44:26.423Z,13.23
2022-09-13T22:46:54.691Z,13.50
2022-09-13T22:49:22.973Z,16.35
2022-09-13T22:51:51.146Z,13.90
2022-09-13T22:54:21.212Z,13.65
2022-09-13T22:56:49.898Z,13.60
2022-09-13T22:59:20.141Z,18.10
2022-09-13T23:01:48.744Z,15.07
2022-09-13T23:04:17.190Z,16.63
2022-09-13T23:06:45.495Z,15.88
2022-09-13T23:09:17.794Z,15.43
2022-09-13T23:11:48.281Z,15.68
2022-09-13T23:14:19.928Z,14.40
2022-09-13T23:16:51.505Z,15.10
2022-09-13T23:19:21.254Z,13.20
2022-09-13T23:21:49.668Z,14.35
2022-09-13T23:24:19.468Z,16.80
2022-09-13T23:26:49.267Z,15.93
2022-09-13T23:29:20.050Z,14.57
2022-09-13T23:31:49.049Z,17.17
2022-09-13T23:34:18.520Z,15.95
2022-09-13T23:36:47.452Z,17.52
2022-09-13T23:39:17.809Z,18.05
2022-09-13T23:41:46.651Z,19.65
2022-09-13T23:44:16.293Z,17.92
2022-09-13T23:46:44.759Z,18.00
2022-09-13T23:49:13.297Z,16.30
2022-09-13T23:51:41.488Z,19.10
2022-09-13T23:54:10.069Z,19.42
2022-09-13T23:56:38.603Z,24.10
2022-09-13T23:59:07.484Z,17.25
